LDZA/ZAG METAR and TAF weather

Enter ICAO airport designator
Station Type Date Time Source
LDZA METAR 2019/04/24 15:30 UTC NOAA

LDZA 241530Z 27007KT 240V300 CAVOK 24/11 Q1014 NOSIG


Station Type Date Time Source
LDZA Decoded METAR 2019/04/24 15:30 UTC NOAA

Zagreb / Pleso, Croatia (LDZA) 45-44N 016-04E 107M
Apr 24, 2019 - 11:30 AM EDT / 2019.04.24 1530 UTC
Wind: from the W (270 degrees) at 8 MPH (7 KT) (direction variable):0
Visibility: greater than 7 mile(s):0
Temperature: 75 F (24 C)
Dew Point: 51 F (11 C)
Relative Humidity: 43%
Pressure (altimeter): 29.94 in. Hg (1014 hPa)
ob: LDZA 241530Z 27007KT 240V300 CAVOK 24/11 Q1014 NOSIG
cycle: 15

Station Type Date Time Source
LDZA TAF 2019/04/24 12:27 UTC NOAA

TAF LDZA 241125Z 2412/2512 23010KT 9999 FEW040 TX23/2412Z TN10/2504Z PROB40
TEMPO 2412/2419 TSRA FEW030CB
BECMG 2415/2417 23005KT
TEMPO 2509/2512 23008KT

Example: see airport list